Etusivu
METAR-TAF:

METAR-TAF

Lentoasemat :

Trollhättan-Vänersborg, Ruotsi

Leveyspiiri: 58-19N, Pituuspiiri: 012-21E, korkeus merenpinnasta: 41 m

Tämänhetkinen sää

Tämä raportti tehtiin 16 minuuttia sitten, kello 22.20 UTC
Tuuli 8 kn kaakosta
Lämpötila 7°C
Kosteus 100%
Ilmanpaine 1015 hPa
Näkyvyys: 2900 m
tihkusadetta

METAR: ESGT 302220Z AUTO 13008KT 2900 DZ OVC004/// 07/07 Q1015 REDZ

Aika: 23:36 (22:36 UTC)

Sääennuste

Tämä raportti tehtiin 11 tuntia ja 6 minuuttia sitten, kello 11.30 UTC
Ennuste voimassa 30. päivästä klo 12 UTC - 30. päivään klo 14 UTC
Tuuli 5 kn kaakosta
Näkyvyys 10 km tai enemmän
Pilvistä 400 ft:n korkeudessa
Tulossa
30. päivästä klo 12 UTC - 30. päivään klo 14 UTC
Hajonneita pilviä 900 ft:n korkeudessa

TAF: ESGT 301130Z 3012/3014 14005KT 9999 OVC004 BECMG 3012/3014 BKN009

Säähavainnot ja -ennusteet yli 4000 lentoasemalta (METAR- ja TAF-raportit).

Käytössä olevat sääasemat on merkitty karttaan keltaisilla ja punaisilla pisteillä.

Aseta hiiri pisteen päälle nähdäksesi sääaseman nimen.

Klikkaa sitten nähdäksesi säähavainnot ja -ennusteet.

Kartan vaihtaminen: klikkaa mustalla rastilla varustettuja vihreitä pisteitä, niin voit zoomata sisään; viivalla varustettua vihreää pistettä, niin voit zoomata ulos tai vihreitä nuolia, niin pääset viereisille kartoille.


METAR-TAF: